Time;durP1;ratioP1;P1;durP2;ratioP2;P2;SDS_P1;SDS_P2;PMS_P1;PMS_P2;Temp;Humidity;BMP_temperature;BMP_pressure;BME280_temperature;BME280_humidity;BME280_pressure;Samples;Min_cycle;Max_cycle;Signal;HPM_P1;HPM_P2
2023/06/26 00:02:21;;;;;;;1.17;1.17;;;;;19.10;96084.00;;;;5052275;28;20196;-56
2023/06/26 00:04:48;;;;;;;1.23;1.23;;;;;19.10;96086.00;;;;5052203;28;20212;-55
2023/06/26 00:07:15;;;;;;;1.10;1.10;;;;;19.20;96083.00;;;;5052253;28;20192;-56
2023/06/26 00:09:43;;;;;;;1.03;1.03;;;;;19.00;96082.00;;;;5052192;28;20270;-57
2023/06/26 00:12:12;;;;;;;1.17;1.17;;;;;19.00;96081.00;;;;5053741;28;20192;-55
2023/06/26 00:14:39;;;;;;;0.90;0.90;;;;;19.10;96075.00;;;;5055817;28;20184;-55
2023/06/26 00:17:06;;;;;;;1.00;1.00;;;;;18.90;96077.00;;;;5056008;28;20195;-56
2023/06/26 00:19:34;;;;;;;1.40;1.30;;;;;18.90;96083.00;;;;5055630;28;20214;-55
2023/06/26 00:22:01;;;;;;;1.33;1.33;;;;;18.70;96088.00;;;;5055650;28;20204;-56
2023/06/26 00:24:29;;;;;;;1.50;1.40;;;;;18.70;96079.00;;;;5055623;28;20211;-55
2023/06/26 00:26:56;;;;;;;0.97;0.97;;;;;18.40;96085.00;;;;5055536;28;20591;-55
2023/06/26 00:29:25;;;;;;;2.43;2.23;;;;;18.20;96080.00;;;;5055533;28;20235;-55
2023/06/26 00:31:52;;;;;;;5.73;2.30;;;;;18.30;96088.00;;;;5055490;28;20195;-55
2023/06/26 00:34:20;;;;;;;3.23;2.33;;;;;18.10;96084.00;;;;5055697;28;20595;-55
2023/06/26 00:36:47;;;;;;;1.63;1.23;;;;;18.30;96083.00;;;;5055424;28;20603;-55
2023/06/26 00:39:15;;;;;;;2.03;1.93;;;;;18.50;96088.00;;;;5055238;28;20216;-57
2023/06/26 00:41:42;;;;;;;1.90;1.80;;;;;18.40;96089.00;;;;5055296;28;20632;-56
2023/06/26 00:44:09;;;;;;;2.03;1.93;;;;;18.40;96091.00;;;;5056212;28;20548;-56
2023/06/26 00:46:38;;;;;;;1.13;1.03;;;;;18.40;96086.00;;;;5054685;28;20204;-58
2023/06/26 00:49:06;;;;;;;0.93;0.93;;;;;18.40;96081.00;;;;5055279;28;20258;-56
2023/06/26 00:51:33;;;;;;;1.73;1.53;;;;;18.30;96073.00;;;;5055422;28;20184;-55
2023/06/26 00:54:02;;;;;;;3.80;1.53;;;;;18.20;96077.00;;;;5055065;28;20196;-55
2023/06/26 00:56:29;;;;;;;1.57;1.47;;;;;18.30;96075.00;;;;5055180;28;20708;-55
2023/06/26 00:58:56;;;;;;;1.07;1.07;;;;;18.10;96074.00;;;;5054846;28;20774;-55
2023/06/26 01:01:25;;;;;;;1.30;1.27;;;;;17.90;96078.00;;;;5055472;28;20188;-56
2023/06/26 01:03:56;;;;;;;1.43;1.33;;;;;18.00;96074.00;;;;5054887;28;20218;-55
2023/06/26 01:06:26;;;;;;;1.03;1.03;;;;;18.00;96081.00;;;;5054964;28;20196;-56
2023/06/26 01:08:54;;;;;;;3.13;2.27;;;;;18.10;96074.00;;;;5054700;28;20651;-56
2023/06/26 01:11:21;;;;;;;2.60;1.83;;;;;18.20;96078.00;;;;5054802;28;20250;-56
2023/06/26 01:13:50;;;;;;;1.00;0.73;;;;;18.10;96079.00;;;;5054722;28;20184;-56
2023/06/26 01:16:20;;;;;;;1.07;1.07;;;;;18.10;96075.00;;;;5054644;28;20192;-55
2023/06/26 01:18:48;;;;;;;1.43;1.33;;;;;18.10;96078.00;;;;5054566;28;20199;-55
2023/06/26 01:21:17;;;;;;;2.63;1.53;;;;;18.00;96072.00;;;;5054762;28;20197;-56
2023/06/26 01:23:59;;;;;;;1.73;1.63;;;;;17.90;96069.00;;;;5052077;28;20297;-55
2023/06/26 01:26:31;;;;;;;2.20;2.10;;;;;17.80;96065.00;;;;5054721;28;20610;-55
2023/06/26 01:29:01;;;;;;;0.77;0.77;;;;;17.70;96070.00;;;;5054659;28;20278;-56
2023/06/26 01:31:31;;;;;;;2.13;2.03;;;;;17.70;96058.00;;;;5054758;28;20189;-55
2023/06/26 01:33:59;;;;;;;2.20;1.60;;;;;17.60;96059.00;;;;5054799;28;20200;-55
2023/06/26 01:36:27;;;;;;;1.73;1.63;;;;;17.70;96058.00;;;;5054289;28;20203;-55
2023/06/26 01:38:55;;;;;;;2.37;2.27;;;;;17.70;96058.00;;;;5054091;28;20648;-55
2023/06/26 01:41:23;;;;;;;1.10;1.10;;;;;17.70;96054.00;;;;5054141;28;20659;-55
2023/06/26 01:44:08;;;;;;;2.93;2.57;;;;;17.70;96047.00;;;;5054071;28;20231;-55
2023/06/26 01:46:41;;;;;;;1.87;1.77;;;;;17.70;96046.00;;;;5054640;28;20183;-55
2023/06/26 01:49:16;;;;;;;1.37;1.37;;;;;17.60;96043.00;;;;5053946;28;20281;-55
2023/06/26 01:51:47;;;;;;;1.30;1.30;;;;;17.70;96045.00;;;;5054286;28;20183;-57
2023/06/26 01:54:19;;;;;;;0.97;0.97;;;;;17.70;96042.00;;;;5054256;28;20259;-55
2023/06/26 01:56:50;;;;;;;2.17;1.73;;;;;17.60;96045.00;;;;5054160;28;20626;-55
2023/06/26 01:59:20;;;;;;;1.43;1.33;;;;;17.50;96046.00;;;;5053880;28;20218;-55
2023/06/26 02:01:48;;;;;;;1.10;1.10;;;;;17.40;96047.00;;;;5054310;28;20172;-57
2023/06/26 02:04:15;;;;;;;1.00;1.00;;;;;17.20;96046.00;;;;5053895;28;20722;-57
2023/06/26 02:06:43;;;;;;;1.47;1.37;;;;;17.30;96043.00;;;;5053853;28;20230;-55
2023/06/26 02:09:10;;;;;;;1.53;1.47;;;;;17.20;96045.00;;;;5053576;28;20259;-56
2023/06/26 02:11:37;;;;;;;1.67;1.57;;;;;17.10;96046.00;;;;5052361;28;20273;-56
2023/06/26 02:14:05;;;;;;;1.90;1.47;;;;;17.00;96047.00;;;;5053540;28;20241;-56
2023/06/26 02:16:33;;;;;;;1.10;1.10;;;;;17.00;96041.00;;;;5053535;28;20196;-56
2023/06/26 02:19:01;;;;;;;1.93;1.83;;;;;16.90;96053.00;;;;5053403;28;20212;-56
2023/06/26 02:21:28;;;;;;;1.37;1.37;;;;;16.90;96051.00;;;;5053925;28;20337;-56
2023/06/26 02:23:55;;;;;;;0.97;0.97;;;;;16.80;96047.00;;;;5053558;28;20220;-56
2023/06/26 02:26:23;;;;;;;1.43;1.43;;;;;16.80;96053.00;;;;5052083;28;20199;-55
2023/06/26 02:28:50;;;;;;;0.90;0.90;;;;;16.90;96048.00;;;;5053510;28;20230;-55
2023/06/26 02:31:18;;;;;;;1.03;1.03;;;;;16.90;96046.00;;;;5052138;28;20200;-56
2023/06/26 02:33:46;;;;;;;1.07;1.07;;;;;16.90;96049.00;;;;5053248;28;20192;-56
2023/06/26 02:36:14;;;;;;;1.07;1.07;;;;;16.80;96046.00;;;;5053076;28;20231;-56
2023/06/26 02:38:41;;;;;;;1.60;1.50;;;;;16.80;96043.00;;;;5053079;28;20196;-56
2023/06/26 02:41:08;;;;;;;1.50;1.40;;;;;16.70;96047.00;;;;5053159;28;20192;-56
2023/06/26 02:43:36;;;;;;;1.13;1.13;;;;;16.70;96033.00;;;;5053058;28;20192;-56
2023/06/26 02:46:03;;;;;;;1.67;1.57;;;;;16.70;96043.00;;;;5053104;28;20199;-56
2023/06/26 02:48:30;;;;;;;0.70;0.70;;;;;16.60;96052.00;;;;5053076;28;20192;-56
2023/06/26 02:50:59;;;;;;;1.43;1.43;;;;;16.40;96034.00;;;;5051662;28;20254;-56
2023/06/26 02:53:26;;;;;;;1.43;1.33;;;;;16.60;96038.00;;;;5053004;28;20685;-56
2023/06/26 02:55:54;;;;;;;2.00;1.87;;;;;16.60;96045.00;;;;5052932;28;20306;-56
2023/06/26 02:58:21;;;;;;;1.13;1.13;;;;;16.60;96037.00;;;;5052883;28;20204;-55
2023/06/26 03:00:49;;;;;;;0.90;0.90;;;;;16.60;96041.00;;;;5052792;28;20712;-56
2023/06/26 03:03:16;;;;;;;1.73;1.63;;;;;16.50;96043.00;;;;5052794;28;20280;-56
2023/06/26 03:05:43;;;;;;;1.23;1.20;;;;;16.30;96046.00;;;;5052762;28;20310;-56
2023/06/26 03:08:12;;;;;;;0.97;0.97;;;;;16.40;96045.00;;;;5052825;28;20192;-56
2023/06/26 03:10:39;;;;;;;0.80;0.80;;;;;16.30;96054.00;;;;5052694;28;20281;-56
2023/06/26 03:13:07;;;;;;;1.70;1.60;;;;;16.10;96050.00;;;;5053045;28;20583;-56
2023/06/26 03:15:34;;;;;;;1.57;1.37;;;;;16.10;96050.00;;;;5052730;28;20192;-56
2023/06/26 03:18:01;;;;;;;1.43;1.33;;;;;16.30;96054.00;;;;5052718;28;20254;-57
2023/06/26 03:20:29;;;;;;;1.00;1.00;;;;;16.10;96040.00;;;;5052654;28;20723;-56
2023/06/26 03:22:56;;;;;;;1.20;1.13;;;;;16.10;96045.00;;;;5052640;28;20207;-59
2023/06/26 03:25:25;;;;;;;1.47;1.43;;;;;16.10;96051.00;;;;5052582;28;20281;-56
2023/06/26 03:27:52;;;;;;;1.07;1.07;;;;;16.10;96041.00;;;;5052611;28;20196;-56
2023/06/26 03:30:19;;;;;;;1.97;1.87;;;;;16.00;96049.00;;;;5052762;28;20594;-58
2023/06/26 03:32:47;;;;;;;0.87;0.87;;;;;15.80;96052.00;;;;5052817;28;20246;-56
2023/06/26 03:35:14;;;;;;;1.70;1.60;;;;;16.10;96052.00;;;;5052815;28;20192;-56
2023/06/26 03:37:42;;;;;;;1.63;1.30;;;;;16.10;96045.00;;;;5052720;28;20227;-56
2023/06/26 03:40:10;;;;;;;1.57;1.47;;;;;16.20;96046.00;;;;5051182;28;20216;-57
2023/06/26 03:42:39;;;;;;;1.47;1.37;;;;;16.00;96045.00;;;;5052992;28;20555;-57
2023/06/26 03:45:07;;;;;;;1.53;1.43;;;;;16.10;96040.00;;;;5051128;28;20231;-57
2023/06/26 03:47:34;;;;;;;0.77;0.77;;;;;16.10;96043.00;;;;5054709;28;20675;-61
2023/06/26 03:50:02;;;;;;;1.50;1.40;;;;;16.10;96044.00;;;;5056194;28;20699;-58
2023/06/26 03:52:30;;;;;;;1.20;1.20;;;;;15.90;96039.00;;;;5056627;28;20200;-55
2023/06/26 03:54:58;;;;;;;2.30;1.27;;;;;16.10;96034.00;;;;5056676;28;20199;-55
2023/06/26 03:57:25;;;;;;;0.80;0.80;;;;;15.90;96041.00;;;;5056887;28;20196;-56
2023/06/26 03:59:54;;;;;;;2.40;2.20;;;;;16.00;96046.00;;;;5056746;28;20211;-56
2023/06/26 04:02:22;;;;;;;1.17;1.17;;;;;15.70;96045.00;;;;5055677;28;20200;-55
2023/06/26 04:04:50;;;;;;;1.67;1.57;;;;;15.90;96054.00;;;;5056685;28;20230;-55
2023/06/26 04:07:17;;;;;;;1.57;1.47;;;;;16.00;96051.00;;;;5056066;28;20207;-55
2023/06/26 04:09:44;;;;;;;1.53;1.43;;;;;16.20;96046.00;;;;5055844;28;20270;-55
2023/06/26 04:12:12;;;;;;;1.17;1.17;;;;;16.30;96049.00;;;;5056082;28;20188;-55
2023/06/26 04:14:39;;;;;;;1.00;1.00;;;;;16.30;96047.00;;;;5056021;28;20195;-56
2023/06/26 04:17:08;;;;;;;1.17;1.17;;;;;16.30;96048.00;;;;5055741;28;20188;-56
2023/06/26 04:19:36;;;;;;;0.90;0.90;;;;;16.40;96052.00;;;;5055615;28;20216;-55
2023/06/26 04:22:04;;;;;;;2.93;1.23;;;;;16.30;96051.00;;;;5054440;28;20288;-56
2023/06/26 04:24:31;;;;;;;1.70;1.53;;;;;16.40;96050.00;;;;5054306;28;20226;-56
2023/06/26 04:26:59;;;;;;;2.20;2.10;;;;;16.60;96048.00;;;;5055516;28;20192;-56
2023/06/26 04:29:27;;;;;;;1.07;1.07;;;;;16.50;96045.00;;;;5055754;28;20706;-56
2023/06/26 04:31:57;;;;;;;1.37;1.27;;;;;16.60;96039.00;;;;5055606;28;20192;-56
2023/06/26 04:34:27;;;;;;;1.03;1.03;;;;;16.60;96045.00;;;;5055497;28;20311;-56
2023/06/26 04:36:54;;;;;;;1.83;1.73;;;;;16.70;96045.00;;;;5055447;28;20196;-56
2023/06/26 04:39:22;;;;;;;1.33;1.30;;;;;16.70;96049.00;;;;5055315;28;20208;-56
2023/06/26 04:41:49;;;;;;;0.90;0.90;;;;;16.70;96044.00;;;;5055266;28;20196;-56
2023/06/26 04:44:16;;;;;;;0.70;0.70;;;;;16.60;96043.00;;;;5055457;28;20245;-56
2023/06/26 04:46:44;;;;;;;1.50;1.40;;;;;16.70;96041.00;;;;5055164;28;20197;-56
2023/06/26 04:49:12;;;;;;;1.80;1.70;;;;;16.80;96042.00;;;;5055264;28;20600;-56
2023/06/26 04:51:41;;;;;;;2.20;1.40;;;;;16.80;96035.00;;;;5055560;28;20180;-55
2023/06/26 04:54:08;;;;;;;1.57;1.47;;;;;17.00;96033.00;;;;5055116;28;20227;-55
2023/06/26 04:56:36;;;;;;;1.17;1.17;;;;;17.10;96033.00;;;;5055294;28;20558;-56
2023/06/26 04:59:04;;;;;;;1.20;1.20;;;;;17.30;96037.00;;;;5054619;28;20703;-58
2023/06/26 05:01:32;;;;;;;1.40;1.30;;;;;17.20;96040.00;;;;5055395;28;20195;-55
2023/06/26 05:03:59;;;;;;;2.60;1.57;;;;;17.10;96027.00;;;;5055127;28;20200;-55
2023/06/26 05:06:27;;;;;;;1.77;1.67;;;;;17.30;96039.00;;;;5054752;28;20212;-55
2023/06/26 05:08:55;;;;;;;5.77;2.37;;;;;17.30;96039.00;;;;5054693;28;20196;-56
2023/06/26 05:11:23;;;;;;;2.00;1.90;;;;;17.30;96030.00;;;;5054712;28;20556;-56
2023/06/26 05:13:51;;;;;;;1.17;1.17;;;;;17.30;96033.00;;;;5054919;28;20713;-55
2023/06/26 05:16:18;;;;;;;2.67;1.13;;;;;17.50;96030.00;;;;5054898;28;20204;-59
2023/06/26 05:18:45;;;;;;;2.07;1.97;;;;;17.50;96036.00;;;;5054499;28;20249;-56
2023/06/26 05:21:13;;;;;;;2.00;1.43;;;;;17.50;96028.00;;;;5054550;28;20200;-56
2023/06/26 05:23:44;;;;;;;0.97;0.97;;;;;17.70;96031.00;;;;5054666;28;20192;-55
2023/06/26 05:26:14;;;;;;;2.00;1.87;;;;;17.70;96040.00;;;;5054402;28;20200;-56
2023/06/26 05:28:44;;;;;;;2.30;2.10;;;;;17.90;96036.00;;;;5054482;28;20196;-56
2023/06/26 05:31:12;;;;;;;1.63;1.53;;;;;18.10;96039.00;;;;5053214;28;20667;-56
2023/06/26 05:33:41;;;;;;;0.87;0.87;;;;;18.20;96040.00;;;;5054239;28;20192;-55
2023/06/26 05:36:10;;;;;;;2.17;2.07;;;;;18.20;96035.00;;;;5054724;28;20188;-56
2023/06/26 05:38:38;;;;;;;1.60;1.50;;;;;18.30;96033.00;;;;5054272;28;20188;-56
2023/06/26 05:41:06;;;;;;;3.50;1.60;;;;;18.30;96033.00;;;;5054370;28;20286;-56
2023/06/26 05:43:34;;;;;;;1.40;1.30;;;;;18.20;96032.00;;;;5054310;28;20207;-54
2023/06/26 05:46:02;;;;;;;1.67;1.57;;;;;18.40;96029.00;;;;5053925;28;20216;-55
2023/06/26 05:48:29;;;;;;;1.67;1.57;;;;;18.50;96037.00;;;;5053985;28;20207;-55
2023/06/26 05:50:57;;;;;;;2.27;2.17;;;;;18.70;96032.00;;;;5053737;28;20219;-55
2023/06/26 05:53:25;;;;;;;1.10;1.10;;;;;18.80;96033.00;;;;5053894;28;20214;-55
2023/06/26 05:55:53;;;;;;;1.63;1.57;;;;;18.80;96035.00;;;;5054072;28;20190;-55
2023/06/26 05:58:23;;;;;;;1.80;1.70;;;;;19.00;96033.00;;;;5053857;28;20221;-56
2023/06/26 06:00:52;;;;;;;2.27;2.07;;;;;19.30;96034.00;;;;5053573;28;20227;-55
2023/06/26 06:03:20;;;;;;;1.70;1.60;;;;;19.50;96028.00;;;;5053718;28;20218;-55
2023/06/26 06:05:47;;;;;;;1.07;1.00;;;;;19.70;96032.00;;;;5053520;28;20212;-55
2023/06/26 06:08:14;;;;;;;2.27;2.07;;;;;19.90;96037.00;;;;5053622;28;20253;-55
2023/06/26 06:10:42;;;;;;;1.67;1.57;;;;;20.00;96031.00;;;;5052907;28;20729;-55
2023/06/26 06:13:09;;;;;;;2.00;1.90;;;;;20.10;96032.00;;;;5052255;28;20659;-55
2023/06/26 06:15:36;;;;;;;1.57;1.47;;;;;20.30;96032.00;;;;5053462;28;20196;-55
2023/06/26 06:18:05;;;;;;;1.45;1.38;;;;;20.40;96032.00;;;;5053689;28;20211;-56
2023/06/26 06:20:32;;;;;;;1.10;1.10;;;;;20.50;96039.00;;;;5053247;28;20212;-56
2023/06/26 06:23:00;;;;;;;0.97;0.97;;;;;20.50;96028.00;;;;5053340;28;20195;-55
2023/06/26 06:25:27;;;;;;;1.17;1.17;;;;;20.60;96039.00;;;;5053205;28;20695;-56
2023/06/26 06:27:55;;;;;;;1.65;1.55;;;;;20.80;96035.00;;;;5053523;28;20555;-56
2023/06/26 06:30:22;;;;;;;1.02;1.02;;;;;21.00;96037.00;;;;5053206;28;20686;-56
2023/06/26 06:32:52;;;;;;;1.02;1.02;;;;;21.20;96037.00;;;;5053334;28;20193;-55
2023/06/26 06:35:21;;;;;;;2.05;1.95;;;;;21.30;96045.00;;;;5051848;28;20666;-55
2023/06/26 06:37:48;;;;;;;0.98;0.98;;;;;21.50;96034.00;;;;5053540;28;20196;-54
2023/06/26 06:40:16;;;;;;;3.00;1.08;;;;;21.70;96038.00;;;;5052909;28;20227;-54
2023/06/26 06:42:44;;;;;;;1.85;1.67;;;;;21.80;96041.00;;;;5053247;28;20200;-55
2023/06/26 06:45:11;;;;;;;1.75;1.65;;;;;22.00;96046.00;;;;5049903;28;20231;-57
2023/06/26 06:47:39;;;;;;;0.85;0.85;;;;;22.00;96046.00;;;;5047986;28;20199;-58
2023/06/26 06:50:08;;;;;;;1.10;1.10;;;;;22.10;96046.00;;;;5049609;28;20239;-58
2023/06/26 06:52:39;;;;;;;1.58;1.48;;;;;22.30;96042.00;;;;5050869;28;20702;-56
2023/06/26 06:55:09;;;;;;;1.10;1.10;;;;;22.50;96040.00;;;;5051159;28;20184;-56
2023/06/26 06:57:38;;;;;;;0.93;0.93;;;;;22.50;96043.00;;;;5051048;28;20551;-55
2023/06/26 07:00:08;;;;;;;1.05;1.05;;;;;23.10;96037.00;;;;5048977;28;20220;-54
2023/06/26 07:02:36;;;;;;;1.23;1.23;;;;;23.30;96031.00;;;;5049845;28;20195;-54
2023/06/26 07:05:04;;;;;;;0.82;0.82;;;;;23.40;96031.00;;;;5050315;28;20243;-54
2023/06/26 07:07:32;;;;;;;0.88;0.88;;;;;23.60;96037.00;;;;5050955;28;20254;-55
2023/06/26 07:10:03;;;;;;;1.25;1.25;;;;;23.90;96031.00;;;;5050208;28;20768;-55
2023/06/26 07:12:30;;;;;;;1.15;1.15;;;;;24.00;96027.00;;;;5051129;28;20200;-55
2023/06/26 07:14:58;;;;;;;2.15;1.98;;;;;24.20;96038.00;;;;5050290;28;20195;-54
2023/06/26 07:17:26;;;;;;;1.25;1.23;;;;;24.50;96036.00;;;;5050781;28;20694;-54
2023/06/26 07:19:53;;;;;;;1.30;1.00;;;;;24.70;96033.00;;;;5050047;28;20211;-55
2023/06/26 07:22:21;;;;;;;2.33;1.27;;;;;24.90;96034.00;;;;5054509;28;20199;-55
2023/06/26 07:24:48;;;;;;;0.80;0.80;;;;;25.10;96036.00;;;;5053996;28;20688;-55
2023/06/26 07:27:35;;;;;;;0.95;0.95;;;;;25.20;96026.00;;;;5054842;28;20207;-54
2023/06/26 07:30:02;;;;;;;0.85;0.85;;;;;25.40;96024.00;;;;5054463;28;20214;-55
2023/06/26 07:32:30;;;;;;;1.02;1.02;;;;;25.50;96033.00;;;;5054278;28;20196;-55
2023/06/26 07:34:57;;;;;;;1.23;1.20;;;;;25.70;96036.00;;;;5054340;28;20206;-55
2023/06/26 07:37:25;;;;;;;1.77;0.88;;;;;25.70;96035.00;;;;5052969;28;20200;-55
2023/06/26 07:39:53;;;;;;;0.90;0.90;;;;;25.90;96027.00;;;;5052859;28;20248;-55
2023/06/26 07:42:21;;;;;;;1.02;1.02;;;;;26.20;96031.00;;;;5053162;28;20215;-55
2023/06/26 07:44:49;;;;;;;27.38;1.90;;;;;26.40;96033.00;;;;5054235;28;20636;-55
2023/06/26 07:47:16;;;;;;;1.65;1.55;;;;;26.40;96039.00;;;;5053911;28;20277;-55
2023/06/26 07:49:44;;;;;;;1.60;1.50;;;;;26.40;96042.00;;;;5053845;28;20235;-55
2023/06/26 07:52:12;;;;;;;1.38;1.38;;;;;26.40;96041.00;;;;5052620;22;20232;-61
2023/06/26 07:54:39;;;;;;;0.77;0.77;;;;;26.50;96039.00;;;;5034502;28;20208;-61
2023/06/26 07:57:08;;;;;;;0.93;0.93;;;;;26.60;96041.00;;;;5033892;28;20554;-60
2023/06/26 07:59:37;;;;;;;1.20;1.10;;;;;26.60;96030.00;;;;5034455;28;20200;-61
2023/06/26 08:02:05;;;;;;;0.88;0.82;;;;;26.80;96038.00;;;;5033755;28;20212;-61
2023/06/26 08:04:33;;;;;;;0.90;0.90;;;;;27.00;96032.00;;;;5016299;28;20291;-61
2023/06/26 08:07:01;;;;;;;1.40;1.30;;;;;26.90;96036.00;;;;5032783;28;20570;-60
2023/06/26 08:09:30;;;;;;;0.85;0.85;;;;;27.20;96037.00;;;;5033937;28;20392;-60
2023/06/26 08:11:59;;;;;;;0.75;0.75;;;;;27.20;96037.00;;;;5033742;28;20227;-62
2023/06/26 08:14:26;;;;;;;0.70;0.70;;;;;27.00;96030.00;;;;5033881;28;20664;-61
2023/06/26 08:16:55;;;;;;;0.77;0.77;;;;;27.30;96029.00;;;;5033833;28;20596;-61
2023/06/26 08:19:22;;;;;;;0.90;0.90;;;;;27.30;96045.00;;;;5033718;28;20280;-61
2023/06/26 08:21:50;;;;;;;1.95;1.85;;;;;27.30;96037.00;;;;5033533;28;20299;-61
2023/06/26 08:24:18;;;;;;;0.73;0.73;;;;;27.50;96043.00;;;;5033622;28;20201;-61
2023/06/26 08:26:47;;;;;;;1.17;1.17;;;;;27.50;96030.00;;;;5033412;28;20213;-61
2023/06/26 08:29:14;;;;;;;1.45;1.33;;;;;27.80;96025.00;;;;5033674;28;20597;-61
2023/06/26 08:31:43;;;;;;;1.13;1.13;;;;;27.80;96030.00;;;;5033302;28;20339;-61
2023/06/26 08:34:11;;;;;;;2.30;1.63;;;;;27.50;96023.00;;;;5031684;28;20196;-60
2023/06/26 08:36:39;;;;;;;1.00;1.00;;;;;27.60;96019.00;;;;5033091;28;20204;-60
2023/06/26 08:39:08;;;;;;;1.08;1.08;;;;;27.60;96028.00;;;;5028603;28;20201;-62
2023/06/26 08:41:36;;;;;;;1.17;1.17;;;;;27.80;96025.00;;;;5032065;28;20213;-61
2023/06/26 08:44:04;;;;;;;2.53;1.95;;;;;28.10;96034.00;;;;5033514;28;20295;-60
2023/06/26 08:46:32;;;;;;;1.08;1.08;;;;;27.90;96029.00;;;;5027788;28;20216;-61
2023/06/26 08:49:09;;;;;;;0.93;0.93;;;;;28.10;96027.00;;;;5033775;28;20628;-61
2023/06/26 08:51:40;;;;;;;0.70;0.70;;;;;28.00;96036.00;;;;5032974;28;20220;-61
2023/06/26 08:54:12;;;;;;;1.85;1.50;;;;;28.00;96033.00;;;;5033258;28;20558;-60
2023/06/26 08:56:43;;;;;;;1.42;1.40;;;;;28.00;96036.00;;;;5033294;28;20197;-60
2023/06/26 08:59:12;;;;;;;0.82;0.82;;;;;28.00;96039.00;;;;5032776;28;20193;-60
2023/06/26 09:01:40;;;;;;;0.93;0.93;;;;;28.10;96040.00;;;;5013733;28;20217;-61
2023/06/26 09:04:08;;;;;;;0.93;0.93;;;;;28.40;96036.00;;;;5032382;28;20942;-60
2023/06/26 09:06:39;;;;;;;1.50;1.40;;;;;28.40;96052.00;;;;5032810;28;20695;-61
2023/06/26 09:09:07;;;;;;;0.85;0.85;;;;;28.30;96057.00;;;;5032734;28;20188;-60
2023/06/26 09:11:35;;;;;;;1.52;1.42;;;;;28.10;96058.00;;;;5032862;28;20223;-60
2023/06/26 09:14:04;;;;;;;1.13;1.13;;;;;28.20;96040.00;;;;5032648;28;20201;-61
2023/06/26 09:16:32;;;;;;;1.10;1.10;;;;;28.40;96041.00;;;;5033011;28;20699;-60
2023/06/26 09:18:59;;;;;;;1.23;1.23;;;;;28.60;96039.00;;;;5032514;28;20218;-61
2023/06/26 09:21:27;;;;;;;1.65;1.55;;;;;28.70;96046.00;;;;5032846;28;20247;-60
2023/06/26 09:23:56;;;;;;;0.93;0.93;;;;;28.40;96040.00;;;;5032734;28;20239;-61
2023/06/26 09:26:24;;;;;;;1.10;1.10;;;;;28.70;96034.00;;;;5032830;28;20695;-60
2023/06/26 09:28:53;;;;;;;0.93;0.93;;;;;28.60;96045.00;;;;5032581;28;20388;-60
2023/06/26 09:31:21;;;;;;;1.48;1.30;;;;;28.20;96079.00;;;;5032713;28;20221;-60
2023/06/26 09:33:50;;;;;;;0.90;0.90;;;;;28.60;96051.00;;;;5031879;28;20197;-60
2023/06/26 09:36:21;;;;;;;2.00;1.90;;;;;28.20;96064.00;;;;5032634;28;20667;-60
2023/06/26 09:38:49;;;;;;;1.00;1.00;;;;;28.10;96072.00;;;;5031773;28;20189;-60
2023/06/26 09:41:19;;;;;;;1.02;1.02;;;;;28.00;96058.00;;;;5032326;28;20240;-61
2023/06/26 09:43:50;;;;;;;1.15;1.15;;;;;28.30;96052.00;;;;5031986;28;20200;-61
2023/06/26 09:46:18;;;;;;;1.27;1.10;;;;;28.30;96054.00;;;;5031324;28;20221;-61
2023/06/26 09:48:46;;;;;;;1.13;1.10;;;;;28.00;96066.00;;;;5031995;28;20564;-61
2023/06/26 09:51:13;;;;;;;1.83;1.73;;;;;28.10;96065.00;;;;5031727;28;20229;-60
2023/06/26 09:53:42;;;;;;;2.15;1.52;;;;;28.10;96060.00;;;;5032074;28;20563;-60
2023/06/26 09:56:18;;;;;;;1.58;1.52;;;;;28.10;96068.00;;;;5014077;28;20205;-61
2023/06/26 09:58:45;;;;;;;3.95;1.40;;;;;27.90;96077.00;;;;5012931;28;20208;-59
2023/06/26 10:01:13;;;;;;;1.63;1.52;;;;;27.60;96079.00;;;;5013907;28;20229;-62
2023/06/26 10:03:41;;;;;;;1.80;1.70;;;;;27.50;96088.00;;;;5031921;28;20200;-61
2023/06/26 10:06:12;;;;;;;2.15;1.95;;;;;27.10;96125.00;;;;5031388;28;20240;-59
2023/06/26 10:08:40;;;;;;;0.90;0.90;;;;;26.60;96104.00;;;;5031766;28;20189;-59
2023/06/26 10:11:12;;;;;;;1.30;1.20;;;;;26.70;96101.00;;;;5013420;28;20698;-60
2023/06/26 10:13:46;;;;;;;1.30;1.30;;;;;26.90;96108.00;;;;5031984;28;20189;-60
2023/06/26 10:16:16;;;;;;;1.02;1.02;;;;;26.50;96114.00;;;;5031504;28;20271;-59
2023/06/26 10:18:45;;;;;;;2.85;2.10;;;;;26.60;96104.00;;;;5031869;28;20258;-60
2023/06/26 10:21:13;;;;;;;12.88;1.50;;;;;27.00;96109.00;;;;5030700;28;20232;-60
2023/06/26 10:23:44;;;;;;;1.92;1.83;;;;;27.00;96108.00;;;;5031838;28;20268;-60
2023/06/26 10:26:12;;;;;;;1.08;1.08;;;;;26.60;96096.00;;;;5031127;28;20221;-58
2023/06/26 10:28:43;;;;;;;0.50;0.50;;;;;26.80;96130.00;;;;5030164;28;20197;-61
2023/06/26 10:31:12;;;;;;;1.45;1.35;;;;;26.50;96117.00;;;;5031283;28;20219;-63
2023/06/26 10:33:40;;;;;;;1.45;1.40;;;;;26.30;96113.00;;;;5031072;28;20219;-61
2023/06/26 10:36:18;;;;;;;1.70;1.60;;;;;26.40;96102.00;;;;5013490;28;20291;-61
2023/06/26 10:38:54;;;;;;;1.20;1.20;;;;;26.50;96125.00;;;;5031185;28;20196;-61
2023/06/26 10:41:23;;;;;;;1.40;1.30;;;;;26.80;96122.00;;;;5030883;28;20218;-60
2023/06/26 10:44:09;;;;;;;1.58;1.48;;;;;26.50;96118.00;;;;5026867;28;20199;-60
2023/06/26 10:46:52;;;;;;;1.02;1.02;;;;;26.70;96111.00;;;;5030469;28;20201;-61
2023/06/26 10:49:21;;;;;;;1.63;1.52;;;;;26.90;96113.00;;;;5014013;28;20223;-60
2023/06/26 10:51:50;;;;;;;1.25;0.95;;;;;26.60;96105.00;;;;5026074;28;20335;-61
2023/06/26 10:54:19;;;;;;;1.10;1.10;;;;;26.70;96119.00;;;;5027269;28;20294;-60
2023/06/26 10:56:48;;;;;;;0.85;0.85;;;;;26.90;96109.00;;;;5030701;28;20200;-60
2023/06/26 10:59:18;;;;;;;1.05;1.05;;;;;27.10;96126.00;;;;5029497;28;20672;-59
2023/06/26 11:01:47;;;;;;;3.58;2.03;;;;;27.20;96108.00;;;;5031030;28;20220;-60
2023/06/26 11:04:16;;;;;;;0.77;0.77;;;;;27.20;96110.00;;;;5029753;28;20196;-60
2023/06/26 11:06:48;;;;;;;1.05;1.05;;;;;27.50;96098.00;;;;5030763;28;20695;-60
2023/06/26 11:09:18;;;;;;;1.35;1.35;;;;;27.80;96098.00;;;;5030712;28;20193;-60
2023/06/26 11:12:04;;;;;;;2.22;2.03;;;;;27.80;96101.00;;;;5030711;28;20295;-59
2023/06/26 11:14:34;;;;;;;2.53;2.33;;;;;27.60;96103.00;;;;5030917;28;20239;-60
2023/06/26 11:17:05;;;;;;;0.93;0.93;;;;;28.00;96122.00;;;;5030095;28;20199;-60
2023/06/26 11:19:32;;;;;;;1.33;1.20;;;;;27.70;96093.00;;;;5026948;28;20192;-60
2023/06/26 11:22:02;;;;;;;2.25;1.83;;;;;27.90;96079.00;;;;5030047;28;20219;-60
2023/06/26 11:24:32;;;;;;;1.40;1.30;;;;;28.50;96094.00;;;;5030874;28;20680;-61
2023/06/26 11:27:03;;;;;;;1.27;1.17;;;;;27.90;96097.00;;;;5030032;28;20220;-61
2023/06/26 11:29:33;;;;;;;1.45;1.35;;;;;28.00;96122.00;;;;5030982;28;20188;-59
2023/06/26 11:32:02;;;;;;;3.17;1.80;;;;;27.90;96106.00;;;;5029839;28;20287;-59
2023/06/26 11:34:34;;;;;;;1.80;1.30;;;;;27.60;96106.00;;;;5030787;28;20204;-59
2023/06/26 11:37:02;;;;;;;0.70;0.70;;;;;28.00;96103.00;;;;5030045;28;20224;-60
2023/06/26 11:39:30;;;;;;;1.58;1.48;;;;;27.80;96112.00;;;;5030810;28;20200;-60
2023/06/26 11:42:00;;;;;;;1.42;1.33;;;;;27.90;96127.00;;;;5030014;28;20224;-60
2023/06/26 11:44:31;;;;;;;1.00;1.00;;;;;28.10;96126.00;;;;5030787;28;20197;-60
2023/06/26 11:47:00;;;;;;;2.75;1.50;;;;;27.60;96129.00;;;;5029995;28;20205;-60
2023/06/26 11:49:29;;;;;;;2.80;2.60;;;;;27.40;96140.00;;;;5030653;28;20207;-61
2023/06/26 11:51:56;;;;;;;1.25;1.15;;;;;27.30;96146.00;;;;5029685;28;20352;-61
2023/06/26 11:54:28;;;;;;;1.02;1.02;;;;;27.60;96133.00;;;;5030920;28;20216;-60
2023/06/26 11:57:00;;;;;;;1.65;1.45;;;;;27.70;96131.00;;;;5012382;28;20200;-60
2023/06/26 11:59:37;;;;;;;0.93;0.93;;;;;27.90;96125.00;;;;5026584;28;20189;-60
2023/06/26 12:02:11;;;;;;;2.50;1.77;;;;;27.50;96143.00;;;;5029887;28;20262;-61
2023/06/26 12:04:41;;;;;;;1.33;1.30;;;;;27.50;96135.00;;;;5030352;28;20193;-60
2023/06/26 12:07:10;;;;;;;1.23;1.17;;;;;26.90;96128.00;;;;5029863;28;20217;-60
2023/06/26 12:09:41;;;;;;;1.52;1.42;;;;;27.40;96124.00;;;;5034237;28;20656;-60
2023/06/26 12:12:10;;;;;;;1.15;1.15;;;;;27.00;96127.00;;;;5033339;28;20224;-60
2023/06/26 12:14:37;;;;;;;1.92;1.83;;;;;27.10;96140.00;;;;5033586;28;20276;-60
2023/06/26 12:17:11;;;;;;;0.88;0.88;;;;;27.50;96143.00;;;;5034051;28;20197;-62
2023/06/26 12:19:39;;;;;;;2.15;1.58;;;;;27.40;96134.00;;;;5033858;28;20203;-60
2023/06/26 12:22:10;;;;;;;1.58;1.48;;;;;27.60;96135.00;;;;5033469;28;20687;-59
2023/06/26 12:24:39;;;;;;;3.60;1.55;;;;;26.90;96138.00;;;;5033673;28;20197;-60
2023/06/26 12:27:10;;;;;;;1.15;1.15;;;;;26.70;96143.00;;;;5033690;28;20224;-60